createdAt,value
2023-04-18T00:00:43.042Z,14.98
2023-04-18T00:03:10.912Z,13.60
2023-04-18T00:05:38.971Z,15.05
2023-04-18T00:08:08.244Z,15.90
2023-04-18T00:10:35.955Z,14.60
2023-04-18T00:13:03.967Z,14.45
2023-04-18T00:15:31.718Z,15.77
2023-04-18T00:18:00.787Z,16.50
2023-04-18T00:20:28.669Z,15.85
2023-04-18T00:22:56.427Z,16.85
2023-04-18T00:25:25.577Z,16.50
2023-04-18T00:27:53.311Z,16.13
2023-04-18T00:30:21.279Z,16.55
2023-04-18T00:32:49.009Z,17.27
2023-04-18T00:35:16.772Z,16.75
2023-04-18T00:37:44.485Z,16.65
2023-04-18T00:40:12.846Z,17.67
2023-04-18T00:42:41.951Z,16.77
2023-04-18T00:45:10.693Z,17.65
2023-04-18T00:47:38.483Z,16.98
2023-04-18T00:50:07.840Z,16.75
2023-04-18T00:52:36.008Z,17.50
2023-04-18T00:55:05.015Z,16.77
2023-04-18T00:57:32.794Z,17.80
2023-04-18T01:00:04.405Z,16.38
2023-04-18T01:02:32.223Z,18.45
2023-04-18T01:05:00.053Z,17.95
2023-04-18T01:07:27.912Z,17.67
2023-04-18T01:09:55.831Z,18.23
2023-04-18T01:12:23.534Z,18.48
2023-04-18T01:14:51.382Z,18.17
2023-04-18T01:17:20.536Z,20.50
2023-04-18T01:19:48.193Z,19.63
2023-04-18T01:22:16.351Z,20.00
2023-04-18T01:24:45.393Z,18.90
2023-04-18T01:27:13.591Z,18.85
2023-04-18T01:29:41.652Z,19.42
2023-04-18T01:32:09.378Z,19.55
2023-04-18T01:34:37.141Z,19.20
2023-04-18T01:37:04.868Z,19.77
2023-04-18T01:39:32.582Z,19.17
2023-04-18T01:42:02.382Z,19.25
2023-04-18T01:44:30.118Z,18.92
2023-04-18T01:46:57.891Z,18.55
2023-04-18T01:49:25.636Z,18.92
2023-04-18T01:51:53.299Z,19.17
2023-04-18T01:54:21.228Z,19.13
2023-04-18T01:56:48.918Z,19.50
2023-04-18T01:59:17.966Z,19.48
2023-04-18T02:01:45.714Z,18.80
2023-04-18T02:04:13.598Z,19.70
2023-04-18T02:06:41.484Z,19.20
2023-04-18T02:09:09.173Z,20.75
2023-04-18T02:11:36.846Z,20.23
2023-04-18T02:14:04.627Z,19.58
2023-04-18T02:16:34.068Z,18.98
2023-04-18T02:19:04.311Z,19.48
2023-04-18T02:21:32.004Z,20.02
2023-04-18T02:23:59.653Z,19.33
2023-04-18T02:26:27.288Z,19.95
2023-04-18T02:28:55.020Z,20.15
2023-04-18T02:31:22.729Z,18.75
2023-04-18T02:33:51.785Z,19.90
2023-04-18T02:36:19.473Z,21.20
2023-04-18T02:38:47.159Z,20.17
2023-04-18T02:41:17.431Z,19.27
2023-04-18T02:43:45.167Z,21.02
2023-04-18T02:46:13.036Z,20.52
2023-04-18T02:48:40.839Z,20.38
2023-04-18T02:51:10.793Z,20.65
2023-04-18T02:53:38.446Z,20.50
2023-04-18T02:56:06.886Z,20.42
2023-04-18T02:58:35.780Z,21.73
2023-04-18T03:01:03.467Z,21.25
2023-04-18T03:03:31.235Z,20.58
2023-04-18T03:06:00.238Z,21.88
2023-04-18T03:08:29.330Z,21.75
2023-04-18T03:10:57.000Z,22.23
2023-04-18T03:13:24.766Z,21.52
2023-04-18T03:15:52.473Z,22.45
2023-04-18T03:18:20.671Z,22.27
2023-04-18T03:20:48.294Z,22.42
2023-04-18T03:23:16.015Z,23.02
2023-04-18T03:25:45.071Z,23.17
2023-04-18T03:28:12.751Z,24.17
2023-04-18T03:30:40.403Z,24.70
2023-04-18T03:33:08.626Z,25.85
2023-04-18T03:35:36.277Z,25.48
2023-04-18T03:38:04.033Z,24.85
2023-04-18T03:40:31.706Z,25.67
2023-04-18T03:43:00.842Z,27.17
2023-04-18T03:45:28.729Z,25.75
2023-04-18T03:47:56.542Z,26.27
2023-04-18T03:50:25.643Z,26.45
2023-04-18T03:52:53.397Z,26.08
2023-04-18T03:55:21.800Z,27.30
2023-04-18T03:57:49.462Z,25.98
2023-04-18T04:00:19.009Z,27.42
2023-04-18T04:02:46.846Z,28.20
2023-04-18T04:05:14.678Z,27.42
2023-04-18T04:07:42.365Z,28.73
2023-04-18T04:10:10.623Z,27.05
2023-04-18T04:12:38.289Z,28.25
2023-04-18T04:15:07.153Z,27.85
2023-04-18T04:17:36.313Z,28.58
2023-04-18T04:20:04.391Z,27.48
2023-04-18T04:22:32.727Z,26.25
2023-04-18T04:25:00.792Z,27.63
2023-04-18T04:27:28.509Z,27.50
2023-04-18T04:29:56.614Z,26.02
2023-04-18T04:32:25.145Z,26.02
2023-04-18T04:34:56.260Z,27.67
2023-04-18T04:37:23.936Z,28.15
2023-04-18T04:39:52.285Z,29.27
2023-04-18T04:42:20.407Z,27.02
2023-04-18T04:44:48.059Z,29.73
2023-04-18T04:47:15.754Z,29.38
2023-04-18T04:49:43.395Z,29.00
2023-04-18T04:52:12.499Z,28.90
2023-04-18T04:54:40.136Z,29.40
2023-04-18T04:57:07.906Z,29.15
2023-04-18T04:59:35.628Z,29.52
2023-04-18T05:02:03.491Z,30.73
2023-04-18T05:04:31.393Z,30.15
2023-04-18T05:06:59.187Z,30.10
2023-04-18T05:09:28.368Z,28.23
2023-04-18T05:11:56.135Z,29.63
2023-04-18T05:14:24.136Z,27.88
2023-04-18T05:16:51.891Z,31.60
2023-04-18T05:19:19.617Z,30.02
2023-04-18T05:21:47.258Z,28.15
2023-04-18T05:24:15.181Z,30.13
2023-04-18T05:26:44.510Z,29.52
2023-04-18T05:29:12.152Z,29.58
2023-04-18T05:31:39.924Z,29.38
2023-04-18T05:34:07.670Z,30.25
2023-04-18T05:36:35.436Z,29.05
2023-04-18T05:39:03.322Z,30.50
2023-04-18T05:41:31.033Z,28.45
2023-04-18T05:44:05.313Z,29.08
2023-04-18T05:46:45.019Z,28.80
2023-04-18T05:49:13.102Z,27.65
2023-04-18T05:51:40.953Z,29.40
2023-04-18T05:54:08.611Z,29.92
2023-04-18T05:56:36.557Z,29.00
2023-04-18T05:59:05.597Z,28.48
2023-04-18T06:01:33.488Z,27.90
2023-04-18T06:04:01.647Z,26.95
2023-04-18T06:06:29.553Z,27.67
2023-04-18T06:08:57.200Z,27.83
2023-04-18T06:11:24.910Z,26.88
2023-04-18T06:13:55.596Z,26.30
2023-04-18T06:16:24.706Z,26.15
2023-04-18T06:18:52.496Z,25.73
2023-04-18T06:21:21.299Z,25.25
2023-04-18T06:23:49.206Z,26.25
2023-04-18T06:26:17.181Z,23.92
2023-04-18T06:28:44.852Z,23.17
2023-04-18T06:31:12.579Z,23.67
2023-04-18T06:33:41.717Z,22.50
2023-04-18T06:36:10.215Z,24.55
2023-04-18T06:38:38.032Z,22.50
2023-04-18T06:41:06.062Z,23.40
2023-04-18T06:43:33.724Z,23.23
2023-04-18T06:46:01.462Z,22.13
2023-04-18T06:48:29.166Z,21.33
2023-04-18T06:50:58.183Z,23.42
2023-04-18T06:53:25.958Z,24.17
2023-04-18T06:55:53.733Z,23.83
2023-04-18T06:58:21.398Z,22.17
2023-04-18T07:00:52.022Z,23.00
2023-04-18T07:03:19.890Z,23.60
2023-04-18T07:05:47.796Z,21.48
2023-04-18T07:08:17.221Z,21.35
2023-04-18T07:10:44.890Z,19.98
2023-04-18T07:13:12.539Z,20.30
2023-04-18T07:15:40.192Z,19.08
2023-04-18T07:18:07.892Z,20.50
2023-04-18T07:20:35.637Z,19.70
2023-04-18T07:23:03.305Z,20.55
2023-04-18T07:25:32.888Z,19.80
2023-04-18T07:28:00.580Z,19.70
2023-04-18T07:30:28.404Z,19.98
2023-04-18T07:32:56.354Z,18.67
2023-04-18T07:35:24.240Z,19.65
2023-04-18T07:37:53.591Z,17.88
2023-04-18T07:40:22.204Z,18.58
2023-04-18T07:42:51.202Z,19.05
2023-04-18T07:45:19.117Z,18.00
2023-04-18T07:47:46.862Z,18.38
2023-04-18T07:50:14.617Z,18.77
2023-04-18T07:52:42.361Z,17.75
2023-04-18T07:55:10.656Z,17.70
2023-04-18T07:57:38.322Z,17.20
2023-04-18T08:00:09.446Z,17.27
2023-04-18T08:02:37.521Z,16.15
2023-04-18T08:05:06.010Z,15.77
2023-04-18T08:07:33.728Z,15.10
2023-04-18T08:10:01.452Z,15.25
2023-04-18T08:12:29.142Z,15.57
2023-04-18T08:14:56.853Z,15.95
2023-04-18T08:17:25.957Z,15.63
2023-04-18T08:19:53.641Z,16.98
2023-04-18T08:22:21.296Z,16.48
2023-04-18T08:25:03.317Z,16.70
2023-04-18T08:27:32.427Z,16.48
2023-04-18T08:30:00.598Z,16.58
2023-04-18T08:32:29.840Z,16.00
2023-04-18T08:34:57.579Z,16.00
2023-04-18T08:37:25.446Z,15.68
2023-04-18T08:39:53.098Z,16.23
2023-04-18T08:42:21.610Z,17.65
2023-04-18T08:44:54.014Z,18.17
2023-04-18T08:47:21.819Z,16.67
2023-04-18T08:49:52.204Z,17.42
2023-04-18T08:52:21.574Z,15.48
2023-04-18T08:54:50.988Z,17.48
2023-04-18T08:57:23.656Z,17.48
2023-04-18T08:59:53.482Z,17.35
2023-04-18T09:02:23.228Z,19.27
2023-04-18T09:04:53.620Z,18.58
2023-04-18T09:07:27.979Z,18.77
2023-04-18T09:09:58.329Z,19.00
2023-04-18T09:12:27.519Z,19.17
2023-04-18T09:14:57.902Z,18.15
2023-04-18T09:17:35.239Z,18.73
2023-04-18T09:20:06.099Z,19.02
2023-04-18T09:22:48.451Z,18.25
2023-04-18T09:25:27.377Z,17.88
2023-04-18T09:27:56.061Z,18.17
2023-04-18T09:30:36.926Z,17.83
2023-04-18T09:33:07.532Z,16.75
2023-04-18T09:35:36.951Z,16.13
2023-04-18T09:38:04.829Z,17.05
2023-04-18T09:40:33.417Z,16.95
2023-04-18T09:43:01.303Z,17.08
2023-04-18T09:45:28.994Z,15.63
2023-04-18T09:47:57.768Z,16.40
2023-04-18T09:50:25.592Z,16.23
2023-04-18T09:52:56.062Z,15.80
2023-04-18T09:55:23.899Z,16.02
2023-04-18T09:57:54.002Z,16.83
2023-04-18T10:00:26.416Z,16.98
2023-04-18T10:02:59.112Z,15.98
2023-04-18T10:05:28.450Z,14.93
2023-04-18T10:07:58.378Z,15.23
2023-04-18T10:10:26.776Z,14.80
2023-04-18T10:12:55.817Z,15.05
2023-04-18T10:15:26.308Z,15.43
2023-04-18T10:18:04.587Z,14.30
2023-04-18T10:20:35.064Z,16.42
2023-04-18T10:23:36.244Z,15.25
2023-04-18T10:26:05.038Z,14.68
2023-04-18T10:28:51.101Z,14.38
2023-04-18T10:31:18.817Z,13.98
2023-04-18T10:34:00.669Z,14.05
2023-04-18T10:36:32.428Z,13.27
2023-04-18T10:39:04.225Z,12.88
2023-04-18T10:41:32.889Z,14.13
2023-04-18T10:44:18.387Z,15.20
2023-04-18T10:47:19.458Z,15.77
2023-04-18T10:49:58.845Z,17.35
2023-04-18T10:52:27.840Z,18.30
2023-04-18T10:55:07.278Z,17.92
2023-04-18T10:57:42.907Z,15.32
2023-04-18T11:00:13.812Z,14.45
2023-04-18T11:02:48.687Z,13.93
2023-04-18T11:05:21.013Z,14.15
2023-04-18T11:07:49.113Z,13.45
2023-04-18T11:10:23.747Z,13.68
2023-04-18T11:12:52.028Z,14.23
2023-04-18T11:15:22.368Z,14.10
2023-04-18T11:17:58.356Z,13.35
2023-04-18T11:20:26.597Z,13.90
2023-04-18T11:22:56.147Z,12.85
2023-04-18T11:25:27.667Z,12.73
2023-04-18T11:27:56.083Z,12.05
2023-04-18T11:30:24.092Z,12.40
2023-04-18T11:32:57.238Z,12.00
2023-04-18T11:35:25.103Z,11.73
2023-04-18T11:37:53.101Z,12.80
2023-04-18T11:40:21.093Z,12.10
2023-04-18T11:42:50.399Z,12.00
2023-04-18T11:45:18.158Z,11.38
2023-04-18T11:47:46.957Z,11.52
2023-04-18T11:50:15.011Z,10.27
2023-04-18T11:52:43.485Z,10.90
2023-04-18T11:55:14.071Z,10.07
2023-04-18T11:57:42.228Z,10.50
2023-04-18T12:00:13.555Z,10.50
2023-04-18T12:02:43.574Z,10.05
2023-04-18T12:05:12.145Z,10.63
2023-04-18T12:07:41.733Z,9.35
2023-04-18T12:10:10.781Z,8.43
2023-04-18T12:12:38.456Z,8.45
2023-04-18T12:15:09.235Z,8.20
2023-04-18T12:17:39.205Z,9.20
2023-04-18T12:20:09.959Z,9.73
2023-04-18T12:22:41.943Z,9.45
2023-04-18T12:25:27.109Z,9.45
2023-04-18T12:27:58.006Z,9.93
2023-04-18T12:30:27.763Z,8.95
2023-04-18T12:32:59.994Z,9.90
2023-04-18T12:35:28.178Z,9.75
2023-04-18T12:37:59.641Z,9.23
2023-04-18T12:40:28.458Z,8.25
2023-04-18T12:42:57.170Z,9.50
2023-04-18T12:45:25.241Z,8.70
2023-04-18T12:47:53.836Z,8.52
2023-04-18T12:50:24.806Z,8.45
2023-04-18T12:52:53.780Z,8.77
2023-04-18T12:55:22.646Z,8.45
2023-04-18T12:57:54.353Z,8.70
2023-04-18T13:00:23.458Z,9.32
2023-04-18T13:02:52.910Z,9.75
2023-04-18T13:05:24.115Z,10.20
2023-04-18T13:07:58.678Z,9.60
2023-04-18T13:10:29.736Z,10.32
2023-04-18T13:12:57.422Z,10.05
2023-04-18T13:15:26.091Z,8.63
2023-04-18T13:17:54.178Z,9.35
2023-04-18T13:20:23.360Z,9.18
2023-04-18T13:22:51.100Z,8.63
2023-04-18T13:25:18.873Z,8.95
2023-04-18T13:27:46.875Z,9.20
2023-04-18T13:30:14.876Z,9.90
2023-04-18T13:32:43.984Z,9.07
2023-04-18T13:35:12.320Z,8.93
2023-04-18T13:37:41.703Z,8.20
2023-04-18T13:40:10.632Z,9.43
2023-04-18T13:42:39.458Z,8.55
2023-04-18T13:45:07.876Z,8.80
2023-04-18T13:47:36.626Z,9.05
2023-04-18T13:50:04.528Z,8.27
2023-04-18T13:52:32.338Z,8.43
2023-04-18T13:55:01.646Z,7.47
2023-04-18T13:57:32.147Z,8.27
2023-04-18T14:00:00.183Z,8.27
2023-04-18T14:02:28.083Z,8.27
2023-04-18T14:04:55.989Z,8.80
2023-04-18T14:07:23.772Z,8.48
2023-04-18T14:09:53.390Z,8.45
2023-04-18T14:12:23.054Z,8.32
2023-04-18T14:14:50.795Z,9.30
2023-04-18T14:17:18.524Z,8.48
2023-04-18T14:19:46.253Z,9.45
2023-04-18T14:22:13.986Z,8.10
2023-04-18T14:24:41.676Z,8.52
2023-04-18T14:27:09.429Z,9.05
2023-04-18T14:29:38.499Z,9.65
2023-04-18T14:32:07.119Z,9.25
2023-04-18T14:34:36.667Z,8.82
2023-04-18T14:37:05.234Z,8.98
2023-04-18T14:39:33.029Z,8.77
2023-04-18T14:42:01.435Z,9.13
2023-04-18T14:44:30.361Z,9.18
2023-04-18T14:46:59.563Z,9.35
2023-04-18T14:49:27.289Z,8.65
2023-04-18T14:51:55.077Z,8.65
2023-04-18T14:54:22.810Z,9.20
2023-04-18T14:56:50.612Z,8.43
2023-04-18T14:59:18.620Z,8.68
2023-04-18T15:01:46.749Z,9.18
2023-04-18T15:04:16.321Z,8.70
2023-04-18T15:06:44.277Z,9.02
2023-04-18T15:09:11.993Z,8.90
2023-04-18T15:11:39.660Z,9.13
2023-04-18T15:14:07.476Z,8.88
2023-04-18T15:16:35.529Z,8.93
2023-04-18T15:19:03.184Z,8.35
2023-04-18T15:21:32.217Z,8.48
2023-04-18T15:24:02.148Z,7.00
2023-04-18T15:26:31.692Z,8.27
2023-04-18T15:29:02.306Z,8.40
2023-04-18T15:31:30.549Z,8.23
2023-04-18T15:33:58.243Z,8.50
2023-04-18T15:36:26.054Z,9.02
2023-04-18T15:38:55.100Z,9.63
2023-04-18T15:41:23.194Z,9.90
2023-04-18T15:43:50.867Z,9.85
2023-04-18T15:46:18.692Z,9.02
2023-04-18T15:48:46.390Z,9.45
2023-04-18T15:51:14.082Z,9.20
2023-04-18T15:53:41.947Z,9.85
2023-04-18T15:56:11.176Z,10.48
2023-04-18T15:58:38.881Z,9.60
2023-04-18T16:01:07.156Z,9.55
2023-04-18T16:03:35.157Z,10.10
2023-04-18T16:06:04.605Z,10.18
2023-04-18T16:08:33.451Z,9.07
2023-04-18T16:11:01.323Z,9.43
2023-04-18T16:13:30.574Z,10.45
2023-04-18T16:15:58.341Z,10.32
2023-04-18T16:18:26.147Z,9.13
2023-04-18T16:20:53.841Z,9.70
2023-04-18T16:23:21.502Z,10.13
2023-04-18T16:25:49.465Z,9.60
2023-04-18T16:28:17.212Z,9.57
2023-04-18T16:30:46.539Z,9.27
2023-04-18T16:33:14.505Z,9.57
2023-04-18T16:35:42.359Z,10.35
2023-04-18T16:38:10.075Z,9.55
2023-04-18T16:40:37.991Z,9.70
2023-04-18T16:43:05.693Z,10.50
2023-04-18T16:45:33.983Z,10.60
2023-04-18T16:48:03.294Z,9.35
2023-04-18T16:50:31.138Z,10.32
2023-04-18T16:52:58.868Z,9.73
2023-04-18T16:55:27.387Z,10.07
2023-04-18T16:57:55.080Z,8.85
2023-04-18T17:00:22.982Z,9.63
2023-04-18T17:02:50.890Z,7.95
2023-04-18T17:05:20.071Z,8.80
2023-04-18T17:07:49.742Z,7.90
2023-04-18T17:10:17.562Z,8.25
2023-04-18T17:12:46.111Z,9.15
2023-04-18T17:15:14.399Z,8.75
2023-04-18T17:17:42.129Z,9.27
2023-04-18T17:20:10.793Z,8.32
2023-04-18T17:22:40.190Z,8.90
2023-04-18T17:25:08.691Z,8.77
2023-04-18T17:27:36.459Z,7.40
2023-04-18T17:30:04.739Z,8.60
2023-04-18T17:32:32.685Z,9.20
2023-04-18T17:35:04.106Z,9.85
2023-04-18T17:37:31.828Z,10.10
2023-04-18T17:40:02.827Z,10.68
2023-04-18T17:42:30.527Z,10.02
2023-04-18T17:44:58.270Z,10.57
2023-04-18T17:47:25.937Z,9.95
2023-04-18T17:49:53.760Z,11.48
2023-04-18T17:52:21.898Z,10.55
2023-04-18T17:54:49.575Z,10.85
2023-04-18T17:57:18.641Z,10.35
2023-04-18T17:59:46.346Z,11.20
2023-04-18T18:02:14.216Z,11.05
2023-04-18T18:04:42.496Z,12.93
2023-04-18T18:07:10.187Z,12.27
2023-04-18T18:09:37.910Z,12.18
2023-04-18T18:12:05.858Z,11.90
2023-04-18T18:14:34.921Z,12.23
2023-04-18T18:17:02.831Z,12.90
2023-04-18T18:19:30.692Z,12.02
2023-04-18T18:21:58.406Z,13.50
2023-04-18T18:24:26.901Z,13.38
2023-04-18T18:26:54.545Z,12.32
2023-04-18T18:29:22.151Z,14.68
2023-04-18T18:31:51.244Z,13.85
2023-04-18T18:34:19.927Z,13.63
2023-04-18T18:36:47.748Z,13.15
2023-04-18T18:39:16.608Z,13.00
2023-04-18T18:41:44.471Z,15.27
2023-04-18T18:44:12.763Z,13.90
2023-04-18T18:46:41.099Z,14.65
2023-04-18T18:49:11.799Z,14.18
2023-04-18T18:51:40.879Z,14.25
2023-04-18T18:54:08.611Z,14.95
2023-04-18T18:56:38.860Z,16.25
2023-04-18T18:59:06.717Z,14.93
2023-04-18T19:01:34.690Z,15.55
2023-04-18T19:04:02.717Z,16.10
2023-04-18T19:06:32.112Z,13.65
2023-04-18T19:08:59.857Z,13.75
2023-04-18T19:11:27.831Z,13.02
2023-04-18T19:13:55.438Z,12.98
2023-04-18T19:16:23.279Z,13.10
2023-04-18T19:18:51.127Z,12.90
2023-04-18T19:21:20.153Z,12.40
2023-04-18T19:23:49.164Z,12.27
2023-04-18T19:26:17.107Z,13.32
2023-04-18T19:28:46.086Z,13.32
2023-04-18T19:31:13.896Z,13.85
2023-04-18T19:33:41.633Z,13.40
2023-04-18T19:36:09.377Z,13.45
2023-04-18T19:38:37.091Z,13.88
2023-04-18T19:41:06.108Z,13.50
2023-04-18T19:43:34.631Z,14.02
2023-04-18T19:46:02.397Z,14.10
2023-04-18T19:48:30.176Z,14.20
2023-04-18T19:50:57.919Z,13.10
2023-04-18T19:53:25.912Z,14.25
2023-04-18T19:55:54.964Z,14.40
2023-04-18T19:58:36.894Z,14.30
2023-04-18T20:01:06.028Z,13.55
2023-04-18T20:03:34.382Z,13.45
2023-04-18T20:06:02.599Z,14.05
2023-04-18T20:08:30.463Z,14.45
2023-04-18T20:10:58.120Z,13.73
2023-04-18T20:13:25.812Z,14.57
2023-04-18T20:15:56.095Z,15.50
2023-04-18T20:18:24.935Z,14.70
2023-04-18T20:20:53.092Z,15.88
2023-04-18T20:23:20.841Z,14.48
2023-04-18T20:25:48.503Z,16.23
2023-04-18T20:28:20.875Z,16.05
2023-04-18T20:30:48.600Z,16.35
2023-04-18T20:33:17.677Z,16.65
2023-04-18T20:35:46.760Z,14.75
2023-04-18T20:38:14.969Z,16.70
2023-04-18T20:40:44.819Z,16.23
2023-04-18T20:43:13.507Z,16.48
2023-04-18T20:45:42.898Z,16.75
2023-04-18T20:48:11.574Z,16.00
2023-04-18T20:50:41.063Z,15.82
2023-04-18T20:53:08.764Z,15.98
2023-04-18T20:55:36.479Z,17.05
2023-04-18T20:58:04.128Z,16.75
2023-04-18T21:00:31.815Z,16.48
2023-04-18T21:02:59.617Z,15.68
2023-04-18T21:05:27.453Z,16.77
2023-04-18T21:07:56.613Z,15.98
2023-04-18T21:10:26.626Z,16.75
2023-04-18T21:12:54.294Z,16.13
2023-04-18T21:15:21.964Z,16.27
2023-04-18T21:17:50.980Z,16.55
2023-04-18T21:20:18.774Z,15.68
2023-04-18T21:22:46.539Z,16.60
2023-04-18T21:25:16.431Z,15.32
2023-04-18T21:27:44.239Z,15.93
2023-04-18T21:30:12.520Z,15.52
2023-04-18T21:32:40.313Z,15.50
2023-04-18T21:35:08.436Z,15.55
2023-04-18T21:37:36.075Z,15.80
2023-04-18T21:40:04.495Z,17.17
2023-04-18T21:42:35.071Z,17.00
2023-04-18T21:45:02.852Z,15.85
2023-04-18T21:47:30.637Z,15.98
2023-04-18T21:49:58.284Z,16.55
2023-04-18T21:52:26.038Z,15.98
2023-04-18T21:54:53.676Z,16.10
2023-04-18T21:57:21.470Z,15.43
2023-04-18T21:59:50.442Z,15.63
2023-04-18T22:02:18.221Z,16.58
2023-04-18T22:04:45.946Z,15.38
2023-04-18T22:07:15.402Z,14.98
2023-04-18T22:09:43.391Z,15.82
2023-04-18T22:12:11.452Z,16.38
2023-04-18T22:14:40.293Z,15.25
2023-04-18T22:17:09.919Z,15.43
2023-04-18T22:19:37.560Z,16.65
2023-04-18T22:22:05.902Z,15.60
2023-04-18T22:24:33.554Z,15.98
2023-04-18T22:27:02.783Z,16.15
2023-04-18T22:29:30.408Z,15.77
2023-04-18T22:31:58.034Z,15.68
2023-04-18T22:34:33.504Z,15.73
2023-04-18T22:39:28.687Z,14.38
2023-04-18T22:41:56.380Z,15.25
2023-04-18T22:44:24.095Z,15.00
2023-04-18T22:46:54.521Z,15.57
2023-04-18T22:49:23.168Z,15.13
2023-04-18T22:51:54.195Z,15.30
2023-04-18T23:01:28.637Z,13.27
2023-04-18T23:03:56.641Z,15.05
2023-04-18T23:06:24.414Z,15.88
2023-04-18T23:08:52.038Z,13.85
2023-04-18T23:11:19.679Z,14.70
2023-04-18T23:13:47.313Z,14.70
2023-04-18T23:16:16.529Z,14.68
2023-04-18T23:18:44.214Z,15.23
2023-04-18T23:21:11.815Z,14.50
2023-04-18T23:23:39.502Z,15.00
2023-04-18T23:26:14.085Z,15.05
2023-04-18T23:28:42.241Z,15.07
2023-04-18T23:31:10.163Z,14.60
2023-04-18T23:33:39.157Z,15.30
2023-04-18T23:36:07.490Z,14.52
2023-04-18T23:38:37.141Z,14.77
2023-04-18T23:41:04.758Z,14.68
2023-04-18T23:43:32.406Z,14.13
2023-04-18T23:46:00.043Z,14.23
2023-04-18T23:48:27.733Z,13.80
2023-04-18T23:50:56.739Z,14.90
2023-04-18T23:53:24.830Z,14.57
2023-04-18T23:55:54.011Z,15.13
2023-04-18T23:58:27.507Z,15.43
